createdAt,value
2022-11-27T00:02:01.870Z,4.60
2022-11-27T00:07:03.660Z,4.20
2022-11-27T00:12:05.778Z,4.77
2022-11-27T00:17:07.711Z,5.60
2022-11-27T00:22:09.532Z,5.33
2022-11-27T00:27:11.689Z,4.77
2022-11-27T00:32:13.554Z,5.67
2022-11-27T00:37:15.456Z,4.90
2022-11-27T00:42:17.298Z,4.10
2022-11-27T00:47:19.146Z,3.93
2022-11-27T00:52:21.024Z,4.00
2022-11-27T00:57:22.911Z,4.20
2022-11-27T01:02:25.065Z,4.10
2022-11-27T01:07:27.262Z,4.37
2022-11-27T01:12:29.170Z,4.90
2022-11-27T01:17:31.050Z,4.43
2022-11-27T01:22:33.700Z,4.20
2022-11-27T01:27:35.494Z,4.47
2022-11-27T01:32:37.335Z,4.07
2022-11-27T01:37:39.153Z,3.97
2022-11-27T01:42:40.951Z,5.23
2022-11-27T01:47:54.676Z,4.67
2022-11-27T01:53:02.905Z,4.07
2022-11-27T01:58:09.407Z,4.07
2022-11-27T02:03:11.499Z,3.07
2022-11-27T02:08:16.067Z,3.70
2022-11-27T02:13:37.287Z,3.40
2022-11-27T02:24:50.689Z,3.87
2022-11-27T02:29:57.552Z,4.60
2022-11-27T02:35:14.844Z,4.70
2022-11-27T02:40:22.469Z,5.00
2022-11-27T02:51:54.278Z,3.83
2022-11-27T02:57:05.511Z,3.57
2022-11-27T03:02:18.608Z,3.90
2022-11-27T03:07:37.741Z,3.63
2022-11-27T03:18:32.494Z,3.77
2022-11-27T03:23:34.950Z,3.47
2022-11-27T03:28:37.163Z,3.43
2022-11-27T03:33:42.363Z,4.57
2022-11-27T03:56:27.404Z,3.33
2022-11-27T04:01:32.958Z,3.60
2022-11-27T04:12:09.451Z,3.80
2022-11-27T04:17:12.439Z,3.73
2022-11-27T04:27:51.469Z,2.87
2022-11-27T04:32:56.515Z,3.43
2022-11-27T04:38:02.012Z,3.43
2022-11-27T04:49:07.789Z,3.63
2022-11-27T04:54:46.269Z,4.30
2022-11-27T05:12:18.559Z,4.30
2022-11-27T06:05:08.172Z,4.77
2022-11-27T06:50:12.385Z,5.33
2022-11-27T07:26:36.726Z,4.47
2022-11-27T09:06:34.931Z,8.47
2022-11-27T09:11:43.422Z,6.40
2022-11-27T09:22:30.251Z,5.33
2022-11-27T11:38:30.755Z,4.27
2022-11-27T11:43:37.232Z,4.80
2022-11-27T11:48:39.108Z,4.80
2022-11-27T11:53:45.301Z,4.90
2022-11-27T11:58:58.417Z,4.83
2022-11-27T12:04:24.591Z,4.80
2022-11-27T12:10:00.347Z,4.80
2022-11-27T12:15:21.122Z,3.40
2022-11-27T12:20:29.041Z,4.40
2022-11-27T12:25:52.908Z,4.93
2022-11-27T12:31:20.351Z,4.00
2022-11-27T12:36:25.267Z,4.27
2022-11-27T12:41:51.757Z,4.20
2022-11-27T12:46:58.696Z,4.20
2022-11-27T12:52:09.343Z,4.37
2022-11-27T12:57:18.916Z,3.73
2022-11-27T13:02:42.410Z,3.70
2022-11-27T13:07:51.468Z,3.17
2022-11-27T13:13:02.490Z,4.10
2022-11-27T13:18:16.191Z,4.07
2022-11-27T13:23:19.318Z,4.93
2022-11-27T13:28:50.151Z,4.00
2022-11-27T13:33:57.755Z,3.80
2022-11-27T13:39:01.852Z,3.73
2022-11-27T13:44:08.914Z,3.37
2022-11-27T13:49:28.825Z,4.10
2022-11-27T13:54:30.624Z,4.60
2022-11-27T13:59:36.448Z,4.17
2022-11-27T14:04:55.658Z,5.17
2022-11-27T14:10:12.528Z,4.30
2022-11-27T14:15:17.090Z,3.67
2022-11-27T14:20:20.867Z,4.67
2022-11-27T14:25:26.959Z,4.60
2022-11-27T14:30:40.466Z,4.50
2022-11-27T14:35:42.327Z,4.43
2022-11-27T14:40:44.552Z,4.10
2022-11-27T14:45:49.627Z,4.33
2022-11-27T14:50:54.006Z,4.50
2022-11-27T14:55:58.266Z,4.93
2022-11-27T15:01:03.422Z,4.23
2022-11-27T15:06:07.475Z,4.53
2022-11-27T15:11:30.040Z,4.43
2022-11-27T15:16:44.824Z,4.47
2022-11-27T15:21:49.804Z,4.97
2022-11-27T15:26:51.672Z,4.23
2022-11-27T15:31:54.139Z,4.90
2022-11-27T15:37:03.696Z,5.07
2022-11-27T15:42:09.856Z,4.80
2022-11-27T15:47:27.856Z,4.33
2022-11-27T15:52:29.770Z,4.97
2022-11-27T15:57:31.960Z,4.80
2022-11-27T16:02:33.817Z,4.50
2022-11-27T16:07:35.922Z,4.40
2022-11-27T16:12:39.067Z,4.50
2022-11-27T16:17:41.169Z,5.03
2022-11-27T16:22:43.267Z,5.30
2022-11-27T16:27:47.255Z,5.60
2022-11-27T16:32:49.100Z,7.33
2022-11-27T16:37:51.358Z,4.80
2022-11-27T16:42:54.564Z,5.50
2022-11-27T16:48:03.166Z,6.00
2022-11-27T16:58:50.433Z,5.20
2022-11-27T17:04:06.734Z,7.23
2022-11-27T17:09:19.612Z,6.07
2022-11-27T17:14:23.146Z,4.60
2022-11-27T17:20:50.918Z,9.97
2022-11-27T17:25:51.141Z,4.70
2022-11-27T17:31:03.838Z,7.90
2022-11-27T17:36:14.374Z,5.80
2022-11-27T17:47:15.005Z,5.77
2022-11-27T17:52:29.026Z,5.73
2022-11-27T17:57:42.367Z,6.23
2022-11-27T18:03:01.187Z,6.03
2022-11-27T18:08:10.380Z,6.67
2022-11-27T18:13:18.419Z,5.70
2022-11-27T18:24:20.814Z,7.27
2022-11-27T18:29:09.985Z,6.00
2022-11-27T18:34:25.540Z,5.77
2022-11-27T18:44:46.480Z,6.00
2022-11-27T18:49:50.620Z,6.27
2022-11-27T18:55:10.582Z,7.70
2022-11-27T19:00:15.087Z,9.00
2022-11-27T19:05:23.981Z,8.60
2022-11-27T19:11:10.064Z,8.87
2022-11-27T19:16:26.181Z,9.03
2022-11-27T19:21:38.331Z,7.30
2022-11-27T19:26:40.559Z,7.60
2022-11-27T19:31:44.821Z,8.20
2022-11-27T19:36:49.852Z,8.30
2022-11-27T19:41:55.001Z,8.10
2022-11-27T19:46:59.664Z,15.13
2022-11-27T19:57:25.258Z,11.50
2022-11-27T20:02:29.993Z,8.50
2022-11-27T20:07:32.069Z,9.07
2022-11-27T20:12:38.365Z,7.33
2022-11-27T20:17:43.979Z,7.67
2022-11-27T20:22:46.821Z,7.27
2022-11-27T20:27:49.004Z,9.80
2022-11-27T20:32:51.209Z,13.73
2022-11-27T20:37:55.498Z,11.07
2022-11-27T20:42:59.017Z,9.60
2022-11-27T20:48:05.464Z,6.87
2022-11-27T20:53:08.137Z,6.07
2022-11-27T20:58:11.815Z,7.30
2022-11-27T21:03:14.714Z,7.07
2022-11-27T21:08:18.492Z,7.63
2022-11-27T21:13:24.567Z,6.57
2022-11-27T21:18:51.696Z,6.97
2022-11-27T21:23:54.548Z,6.37
2022-11-27T21:28:57.377Z,6.60
2022-11-27T21:34:04.292Z,6.60
2022-11-27T21:39:09.392Z,6.17
2022-11-27T21:44:13.576Z,6.87
2022-11-27T21:49:19.842Z,7.17
2022-11-27T21:54:24.055Z,7.87
2022-11-27T21:59:26.491Z,7.00
2022-11-27T22:04:29.924Z,7.43
2022-11-27T22:09:34.428Z,5.80
2022-11-27T22:14:37.716Z,7.13
2022-11-27T22:19:45.730Z,7.53
2022-11-27T22:30:11.466Z,5.80
2022-11-27T22:35:13.982Z,6.10
2022-11-27T22:40:16.586Z,5.77
2022-11-27T22:45:22.157Z,6.03
2022-11-27T22:50:24.779Z,6.50
2022-11-27T22:55:27.656Z,6.73
2022-11-27T23:00:29.669Z,5.93
2022-11-27T23:05:31.620Z,6.40
2022-11-27T23:10:33.647Z,5.60
2022-11-27T23:15:35.779Z,5.87
2022-11-27T23:20:42.579Z,6.40
2022-11-27T23:25:44.558Z,6.60
2022-11-27T23:30:46.534Z,6.37
2022-11-27T23:35:48.460Z,6.57
2022-11-27T23:40:50.338Z,5.93
2022-11-27T23:45:52.377Z,6.70
2022-11-27T23:50:54.386Z,7.37
2022-11-27T23:56:00.384Z,6.07
